createdAt,value
2023-11-07T00:02:09.837Z,100142.44
2023-11-07T00:04:39.923Z,100159.38
2023-11-07T00:07:09.163Z,100156.06
2023-11-07T00:09:38.373Z,100157.03
2023-11-07T00:12:08.626Z,100159.28
2023-11-07T00:14:37.859Z,100163.41
2023-11-07T00:17:08.470Z,100168.06
2023-11-07T00:19:37.609Z,100164.47
2023-11-07T00:22:07.277Z,100175.91
2023-11-07T00:24:36.327Z,100169.59
2023-11-07T00:27:06.018Z,100176.31
2023-11-07T00:29:35.230Z,100180.06
2023-11-07T00:32:04.701Z,100175.50
2023-11-07T00:34:35.290Z,100184.47
2023-11-07T00:37:05.388Z,100168.75
2023-11-07T00:39:34.560Z,100188.63
2023-11-07T00:42:06.050Z,100196.06
2023-11-07T00:44:35.661Z,100194.09
2023-11-07T00:47:04.775Z,100201.97
2023-11-07T00:49:35.207Z,100205.16
2023-11-07T00:52:04.349Z,100207.91
2023-11-07T00:54:33.438Z,100209.97
2023-11-07T00:57:02.961Z,100209.00
2023-11-07T00:59:32.159Z,100211.91
2023-11-07T01:02:01.519Z,100216.59
2023-11-07T01:04:30.875Z,100210.00
2023-11-07T01:07:01.490Z,100219.75
2023-11-07T01:09:30.557Z,100226.22
2023-11-07T01:12:00.187Z,100225.69
2023-11-07T01:14:29.355Z,100220.03
2023-11-07T01:16:58.407Z,100214.25
2023-11-07T01:19:28.318Z,100222.66
2023-11-07T01:21:57.448Z,100224.16
2023-11-07T01:24:27.948Z,100222.09
2023-11-07T01:26:57.087Z,100224.84
2023-11-07T01:29:26.156Z,100231.31
2023-11-07T01:31:56.664Z,100219.47
2023-11-07T01:34:25.864Z,100221.97
2023-11-07T01:36:54.933Z,100229.94
2023-11-07T01:39:24.009Z,100217.56
2023-11-07T01:41:54.761Z,100228.69
2023-11-07T01:44:30.857Z,100227.31
2023-11-07T01:47:01.093Z,100232.94
2023-11-07T01:49:30.251Z,100231.44
2023-11-07T01:52:00.966Z,100237.94
2023-11-07T01:54:30.868Z,100240.78
2023-11-07T01:57:01.531Z,100236.97
2023-11-07T01:59:30.989Z,100230.63
2023-11-07T02:02:02.355Z,100243.88
2023-11-07T02:04:31.626Z,100240.69
2023-11-07T02:07:00.768Z,100240.25
2023-11-07T02:09:29.982Z,100238.38
2023-11-07T02:12:00.533Z,100245.00
2023-11-07T02:14:29.982Z,100234.50
2023-11-07T02:16:59.250Z,100240.28
2023-11-07T02:19:28.311Z,100238.38
2023-11-07T02:22:01.323Z,100237.00
2023-11-07T02:24:32.438Z,100254.50
2023-11-07T02:27:01.623Z,100249.00
2023-11-07T02:29:30.857Z,100252.97
2023-11-07T02:32:00.401Z,100251.72
2023-11-07T02:34:29.640Z,100256.69
2023-11-07T02:36:58.797Z,100253.66
2023-11-07T02:39:28.464Z,100253.41
2023-11-07T02:41:58.899Z,100260.25
2023-11-07T02:44:28.051Z,100249.38
2023-11-07T02:46:57.230Z,100253.41
2023-11-07T02:49:27.038Z,100270.19
2023-11-07T02:51:56.367Z,100253.41
2023-11-07T02:54:26.318Z,100265.91
2023-11-07T02:56:55.414Z,100261.50
2023-11-07T02:59:25.853Z,100260.13
2023-11-07T03:01:54.923Z,100261.09
2023-11-07T03:04:24.007Z,100260.97
2023-11-07T03:06:54.021Z,100253.53
2023-11-07T03:09:23.227Z,100252.41
2023-11-07T03:11:52.580Z,100247.84
2023-11-07T03:14:21.706Z,100244.00
2023-11-07T03:16:52.664Z,100247.72
2023-11-07T03:19:21.740Z,100256.69
2023-11-07T03:21:50.919Z,100254.50
2023-11-07T03:24:20.010Z,100258.59
2023-11-07T03:26:49.088Z,100258.88
2023-11-07T03:29:18.190Z,100259.56
2023-11-07T03:31:47.215Z,100266.06
2023-11-07T03:34:18.543Z,100266.06
2023-11-07T03:36:47.830Z,100272.13
2023-11-07T03:39:17.527Z,100267.44
2023-11-07T03:41:47.467Z,100271.00
2023-11-07T03:44:16.584Z,100272.41
2023-11-07T03:46:45.693Z,100273.78
2023-11-07T03:49:16.316Z,100277.91
2023-11-07T03:51:46.938Z,100276.66
2023-11-07T03:54:16.068Z,100271.28
2023-11-07T03:56:48.840Z,100277.34
2023-11-07T03:59:18.029Z,100275.56
2023-11-07T04:01:47.228Z,100293.06
2023-11-07T04:04:19.200Z,100283.28
2023-11-07T04:06:49.382Z,100285.75
2023-11-07T04:09:18.818Z,100285.75
2023-11-07T04:11:47.940Z,100290.44
2023-11-07T04:14:19.554Z,100293.47
2023-11-07T04:16:49.506Z,100295.97
2023-11-07T04:19:20.019Z,100292.66
2023-11-07T04:21:49.890Z,100295.00
2023-11-07T04:24:22.111Z,100299.41
2023-11-07T04:26:51.817Z,100298.84
2023-11-07T04:29:20.952Z,100296.78
2023-11-07T04:31:50.182Z,100293.63
2023-11-07T04:34:20.681Z,100286.19
2023-11-07T04:36:49.851Z,100295.84
2023-11-07T04:39:18.998Z,100295.84
2023-11-07T04:41:48.703Z,100301.06
2023-11-07T04:44:17.866Z,100306.72
2023-11-07T04:46:47.008Z,100301.63
2023-11-07T04:49:16.463Z,100295.69
2023-11-07T04:51:47.580Z,100293.34
2023-11-07T04:58:29.578Z,100293.34
2023-11-07T05:00:58.698Z,100293.34
2023-11-07T05:03:35.629Z,100299.13
2023-11-07T05:06:08.857Z,100298.72
2023-11-07T05:08:39.548Z,100307.25
2023-11-07T05:11:09.031Z,100296.66
2023-11-07T05:13:39.171Z,100295.28
2023-11-07T05:16:08.935Z,100291.44
2023-11-07T05:18:39.238Z,100300.78
2023-11-07T05:21:09.618Z,100298.16
2023-11-07T05:23:40.113Z,100307.53
2023-11-07T05:26:10.156Z,100302.03
2023-11-07T05:28:39.466Z,100302.03
2023-11-07T05:31:09.229Z,100307.53
2023-11-07T05:33:38.570Z,100310.44
2023-11-07T05:36:08.925Z,100301.47
2023-11-07T05:38:39.831Z,100304.53
2023-11-07T05:41:09.069Z,100316.78
2023-11-07T05:43:38.168Z,62107.28
2023-11-07T05:46:08.918Z,100309.75
2023-11-07T05:48:38.582Z,100315.38
2023-11-07T05:51:08.535Z,100315.13
2023-11-07T05:53:39.365Z,62107.28
2023-11-07T05:56:08.839Z,100328.06
2023-11-07T05:58:38.604Z,100339.50
2023-11-07T06:01:08.064Z,100335.25
2023-11-07T06:03:37.725Z,100328.34
2023-11-07T06:06:08.941Z,100322.00
2023-11-07T06:08:39.574Z,100330.81
2023-11-07T06:11:09.403Z,100334.28
2023-11-07T06:13:38.872Z,100331.22
2023-11-07T06:16:09.228Z,100333.00
2023-11-07T06:18:39.699Z,100333.00
2023-11-07T06:21:09.587Z,100333.00
2023-11-07T06:23:40.205Z,100336.38
2023-11-07T06:26:10.276Z,100346.44
2023-11-07T06:28:39.436Z,100350.06
2023-11-07T06:31:08.586Z,100346.63
2023-11-07T06:33:37.748Z,100358.59
2023-11-07T06:36:07.686Z,100353.47
2023-11-07T06:38:36.802Z,100356.81
2023-11-07T06:41:08.782Z,100366.44
2023-11-07T06:43:37.957Z,100364.38
2023-11-07T06:46:07.845Z,100369.34
2023-11-07T06:48:37.021Z,100369.34
2023-11-07T06:51:06.743Z,100377.75
2023-11-07T06:53:36.109Z,100369.09
2023-11-07T06:56:07.246Z,100376.97
2023-11-07T06:58:36.692Z,100371.03
2023-11-07T07:01:06.242Z,100373.00
2023-11-07T07:03:35.465Z,100372.16
2023-11-07T07:06:05.067Z,100370.09
2023-11-07T07:08:34.209Z,100387.06
2023-11-07T07:11:04.044Z,100383.22
2023-11-07T07:13:34.649Z,100379.06
2023-11-07T07:16:04.691Z,100377.81
2023-11-07T07:18:34.891Z,100382.25
2023-11-07T07:21:05.855Z,100383.50
2023-11-07T07:23:37.218Z,100387.66
2023-11-07T07:26:09.611Z,100384.59
2023-11-07T07:28:40.196Z,100392.63
2023-11-07T07:31:09.583Z,100393.72
2023-11-07T07:33:40.724Z,100389.72
2023-11-07T07:36:16.170Z,100400.91
2023-11-07T07:38:45.393Z,100403.13
2023-11-07T07:41:14.557Z,100408.75
2023-11-07T07:43:46.059Z,100411.09
2023-11-07T07:46:16.090Z,100411.25
2023-11-07T07:48:46.903Z,100414.97
2023-11-07T07:51:16.288Z,100414.41
2023-11-07T07:53:46.135Z,100410.13
2023-11-07T07:56:15.506Z,100422.72
2023-11-07T07:58:46.006Z,100420.38
2023-11-07T08:01:21.214Z,62107.28
2023-11-07T08:03:51.993Z,100414.28
2023-11-07T08:06:21.209Z,100414.28
2023-11-07T08:08:51.419Z,62107.28
2023-11-07T08:11:20.488Z,100414.28
2023-11-07T08:13:50.955Z,62107.28
2023-11-07T08:16:20.653Z,100414.28
2023-11-07T08:18:49.909Z,100431.16
2023-11-07T08:21:19.103Z,100434.19
2023-11-07T08:23:48.401Z,100441.63
2023-11-07T08:26:18.464Z,62107.28
2023-11-07T08:28:48.192Z,100435.00
2023-11-07T08:31:18.693Z,100435.00
2023-11-07T08:33:51.106Z,100435.00
2023-11-07T08:36:20.301Z,100434.59
2023-11-07T08:38:49.586Z,62107.28
2023-11-07T08:41:18.823Z,62107.28
2023-11-07T08:43:48.497Z,62107.28
2023-11-07T08:46:21.222Z,62107.28
2023-11-07T08:48:51.848Z,62107.28
2023-11-07T08:51:21.079Z,62107.28
2023-11-07T08:53:50.210Z,62107.28
2023-11-07T08:56:22.236Z,62107.28
2023-11-07T08:58:51.905Z,62107.28
2023-11-07T09:01:22.916Z,62107.28
2023-11-07T09:03:52.741Z,62107.28
2023-11-07T09:06:21.962Z,62107.28
2023-11-07T09:08:51.529Z,62107.28
2023-11-07T09:11:21.394Z,62107.28
2023-11-07T09:13:51.435Z,62107.28
2023-11-07T09:16:22.063Z,62107.28
2023-11-07T09:18:51.262Z,62107.28
2023-11-07T09:21:20.547Z,62107.28
2023-11-07T09:23:51.107Z,62107.28
2023-11-07T09:26:20.248Z,62107.28
2023-11-07T09:28:49.390Z,62107.28
2023-11-07T09:31:19.625Z,62107.28
2023-11-07T09:33:50.245Z,62107.28
2023-11-07T09:36:19.559Z,62107.28
2023-11-07T09:38:53.206Z,62107.28
2023-11-07T09:41:22.843Z,62107.28
2023-11-07T09:43:53.267Z,62107.28
2023-11-07T09:46:25.813Z,62107.28
2023-11-07T09:48:56.660Z,62107.28
2023-11-07T09:51:28.510Z,100434.59
2023-11-07T09:54:00.497Z,100477.09
2023-11-07T09:56:32.785Z,100476.94
2023-11-07T09:59:22.666Z,100470.06
2023-11-07T10:01:52.173Z,100474.03
2023-11-07T10:04:24.178Z,100476.66
2023-11-07T10:06:53.438Z,100482.31
2023-11-07T10:09:22.790Z,100488.78
2023-11-07T10:11:54.394Z,100484.25
2023-11-07T10:14:23.907Z,100488.22
2023-11-07T10:16:54.020Z,100488.38
2023-11-07T10:19:26.670Z,100489.63
2023-11-07T10:21:56.075Z,100490.19
2023-11-07T10:24:25.235Z,100491.28
2023-11-07T10:26:59.876Z,100493.47
2023-11-07T10:29:35.886Z,100496.53
2023-11-07T10:32:11.182Z,100487.59
2023-11-07T10:34:41.826Z,100496.44
2023-11-07T10:37:12.305Z,100489.13
2023-11-07T10:39:41.415Z,100497.38
2023-11-07T10:42:18.731Z,100497.69
2023-11-07T10:44:49.407Z,100497.81
2023-11-07T10:47:21.454Z,100488.00
2023-11-07T10:49:53.689Z,100493.09
2023-11-07T10:52:22.902Z,100495.84
2023-11-07T10:54:52.041Z,100492.50
2023-11-07T10:57:28.041Z,100489.78
2023-11-07T11:00:11.747Z,100486.34
2023-11-07T11:02:42.152Z,100487.63
2023-11-07T11:05:16.970Z,100488.97
2023-11-07T11:07:52.282Z,100481.09
2023-11-07T11:10:28.352Z,100482.00
2023-11-07T11:12:58.398Z,100485.97
2023-11-07T11:15:29.332Z,100483.56
2023-11-07T11:18:04.397Z,100486.81
2023-11-07T11:20:44.319Z,100478.84
2023-11-07T11:23:22.603Z,100482.72
2023-11-07T11:26:12.749Z,100489.84
2023-11-07T11:28:43.923Z,100482.16
2023-11-07T11:31:16.609Z,100484.41
2023-11-07T11:33:47.487Z,100492.03
2023-11-07T11:36:36.372Z,100488.47
2023-11-07T11:39:47.795Z,100486.69
2023-11-07T11:42:17.235Z,100491.25
2023-11-07T11:45:06.600Z,100487.31
2023-11-07T11:47:52.448Z,100480.06
2023-11-07T11:50:22.219Z,100481.09
2023-11-07T11:52:55.314Z,100484.97
2023-11-07T11:55:24.457Z,100494.41
2023-11-07T11:58:15.313Z,100497.59
2023-11-07T12:00:47.910Z,100504.25
2023-11-07T12:03:19.928Z,100494.41
2023-11-07T12:06:06.334Z,100494.41
2023-11-07T12:08:38.690Z,100493.16
2023-11-07T12:11:08.467Z,100482.78
2023-11-07T12:13:37.994Z,100478.38
2023-11-07T12:16:28.148Z,100473.41
2023-11-07T12:18:59.418Z,100465.13
2023-11-07T12:21:30.183Z,62107.28
2023-11-07T12:24:02.802Z,62107.28
2023-11-07T12:26:42.881Z,62107.28
2023-11-07T12:29:12.740Z,62107.28
2023-11-07T12:31:42.202Z,62107.28
2023-11-07T12:34:13.761Z,100465.13
2023-11-07T12:36:45.415Z,62107.28
2023-11-07T12:39:16.213Z,100465.13
2023-11-07T12:41:45.997Z,100474.09
2023-11-07T12:44:17.565Z,100468.53
2023-11-07T12:46:47.293Z,100475.28
2023-11-07T12:49:17.761Z,100471.81
2023-11-07T12:51:47.690Z,100481.38
2023-11-07T12:54:26.668Z,100485.94
2023-11-07T12:56:55.860Z,100479.97
2023-11-07T12:59:25.006Z,100472.50
2023-11-07T13:01:55.304Z,100464.41
2023-11-07T13:04:24.619Z,100474.63
2023-11-07T13:06:55.666Z,100474.63
2023-11-07T13:09:32.384Z,100468.00
2023-11-07T13:12:09.750Z,100473.13
2023-11-07T13:14:39.472Z,100467.47
2023-11-07T13:17:09.473Z,100470.22
2023-11-07T13:19:39.298Z,100471.69
2023-11-07T13:22:11.009Z,100469.06
2023-11-07T13:24:41.868Z,100467.75
2023-11-07T13:27:11.011Z,100470.22
2023-11-07T13:29:40.226Z,100466.53
2023-11-07T13:32:09.604Z,100470.56
2023-11-07T13:34:38.925Z,100471.53
2023-11-07T13:37:09.391Z,100468.63
2023-11-07T13:39:43.277Z,100474.59
2023-11-07T13:42:12.474Z,100476.19
2023-11-07T13:44:42.076Z,100477.97
2023-11-07T13:47:11.189Z,100483.25
2023-11-07T13:49:40.495Z,100483.25
2023-11-07T13:52:10.099Z,100473.97
2023-11-07T13:54:40.663Z,100480.94
2023-11-07T13:57:09.873Z,100473.06
2023-11-07T13:59:39.095Z,100467.16
2023-11-07T14:02:09.751Z,100469.25
2023-11-07T14:04:38.896Z,100471.25
2023-11-07T14:07:08.777Z,100471.25
2023-11-07T14:09:40.761Z,62107.28
2023-11-07T14:12:09.977Z,62107.28
2023-11-07T14:14:39.076Z,100471.25
2023-11-07T14:17:09.102Z,100467.31
2023-11-07T14:19:38.247Z,100472.50
2023-11-07T14:22:07.766Z,100472.50
2023-11-07T14:24:39.246Z,100474.84
2023-11-07T14:27:10.240Z,100480.34
2023-11-07T14:29:55.607Z,100483.13
2023-11-07T14:32:30.064Z,100489.38
2023-11-07T14:34:59.237Z,100491.00
2023-11-07T14:37:30.660Z,100488.38
2023-11-07T14:40:00.293Z,100489.38
2023-11-07T14:42:32.984Z,100493.25
2023-11-07T14:45:03.045Z,100494.91
2023-11-07T14:47:34.932Z,100494.91
2023-11-07T14:50:04.591Z,100499.59
2023-11-07T14:52:34.384Z,100492.28
2023-11-07T14:55:05.264Z,100486.34
2023-11-07T14:57:35.819Z,62107.28
2023-11-07T15:00:09.860Z,62107.28
2023-11-07T15:02:39.083Z,100486.34
2023-11-07T15:05:10.035Z,100488.00
2023-11-07T15:07:39.590Z,100494.03
2023-11-07T15:10:11.794Z,100491.59
2023-11-07T15:12:42.283Z,100500.00
2023-11-07T15:15:13.659Z,100505.13
2023-11-07T15:17:45.153Z,100514.78
2023-11-07T15:20:14.991Z,100499.59
2023-11-07T15:22:44.743Z,100501.78
2023-11-07T15:25:14.584Z,100500.84
2023-11-07T15:27:47.060Z,62107.28
2023-11-07T15:30:18.650Z,100505.13
2023-11-07T15:32:48.746Z,100517.84
2023-11-07T15:35:19.444Z,100517.84
2023-11-07T15:37:49.403Z,100499.72
2023-11-07T15:40:21.800Z,100499.72
2023-11-07T15:42:53.795Z,100506.22
2023-11-07T15:45:23.080Z,100509.28
2023-11-07T15:47:52.345Z,100514.22
2023-11-07T15:50:21.610Z,100514.22
2023-11-07T15:53:00.583Z,100512.84
2023-11-07T15:55:37.782Z,100509.81
2023-11-07T15:58:08.716Z,100510.75
2023-11-07T16:00:37.964Z,100512.16
2023-11-07T16:03:08.037Z,100512.16
2023-11-07T16:05:38.737Z,100515.66
2023-11-07T16:08:09.169Z,100518.47
2023-11-07T16:10:39.502Z,100511.41
2023-11-07T16:13:10.739Z,62107.28
2023-11-07T16:15:39.967Z,62107.28
2023-11-07T16:18:09.211Z,100523.22
2023-11-07T16:23:09.643Z,100527.09
2023-11-07T16:25:39.113Z,100518.78
2023-11-07T16:28:09.684Z,100525.81
2023-11-07T16:30:40.188Z,100526.22
2023-11-07T16:33:10.969Z,100520.00
2023-11-07T16:35:40.281Z,100526.09
2023-11-07T16:38:09.626Z,100523.31
2023-11-07T16:40:38.733Z,100520.69
2023-11-07T16:43:09.474Z,100520.97
2023-11-07T16:45:38.756Z,100524.94
2023-11-07T16:48:08.918Z,100525.22
2023-11-07T16:50:38.144Z,100531.41
2023-11-07T16:53:07.380Z,100531.41
2023-11-07T16:55:37.086Z,100528.38
2023-11-07T16:58:07.002Z,100529.19
2023-11-07T17:00:37.959Z,100531.09
2023-11-07T17:03:07.312Z,100533.09
2023-11-07T17:05:37.754Z,100536.13
2023-11-07T17:08:07.946Z,100536.81
2023-11-07T17:10:37.121Z,100539.44
2023-11-07T17:13:06.318Z,100545.25
2023-11-07T17:15:36.842Z,100545.25
2023-11-07T17:18:06.135Z,100547.75
2023-11-07T17:20:35.970Z,100553.28
2023-11-07T17:23:05.791Z,100537.28
2023-11-07T17:25:35.426Z,100545.88
2023-11-07T17:28:04.668Z,100540.50
2023-11-07T17:30:33.835Z,100541.72
2023-11-07T17:33:05.570Z,100547.94
2023-11-07T17:35:34.797Z,100547.78
2023-11-07T17:38:04.317Z,100547.78
2023-11-07T17:40:33.825Z,62107.28
2023-11-07T17:43:03.981Z,62107.28
2023-11-07T17:45:33.168Z,62107.28
2023-11-07T17:48:04.578Z,62107.28
2023-11-07T17:50:34.873Z,62107.28
2023-11-07T17:53:04.037Z,62107.28
2023-11-07T17:55:33.132Z,62107.28
2023-11-07T17:58:02.291Z,62107.28
2023-11-07T18:00:32.270Z,62107.28
2023-11-07T18:03:03.673Z,62107.28
2023-11-07T18:05:32.861Z,62107.28
2023-11-07T18:08:04.551Z,62107.28
2023-11-07T18:10:33.830Z,62107.28
2023-11-07T18:13:03.265Z,100547.78
2023-11-07T18:15:32.448Z,100539.72
2023-11-07T18:18:03.068Z,100543.00
2023-11-07T18:20:31.535Z,100546.72
2023-11-07T18:23:00.814Z,100551.28
2023-11-07T18:25:30.297Z,100553.72
2023-11-07T18:27:59.418Z,100548.53
2023-11-07T18:30:28.593Z,100544.75
2023-11-07T18:32:57.841Z,100556.91
2023-11-07T18:35:28.422Z,100545.97
2023-11-07T18:37:57.577Z,100554.47
2023-11-07T18:40:26.943Z,100552.97
2023-11-07T18:42:56.025Z,100550.97
2023-11-07T18:45:25.184Z,100556.91
2023-11-07T18:47:54.450Z,100554.97
2023-11-07T18:50:24.481Z,100558.38
2023-11-07T18:52:55.234Z,62107.28
2023-11-07T18:55:24.484Z,100558.09
2023-11-07T18:57:53.762Z,100556.78
2023-11-07T19:00:23.139Z,100548.94
2023-11-07T19:02:52.428Z,100552.19
2023-11-07T19:05:22.642Z,100557.72
2023-11-07T19:07:53.427Z,100549.03
2023-11-07T19:10:24.634Z,100550.72
2023-11-07T19:12:54.205Z,100552.03
2023-11-07T19:15:23.581Z,100551.09
2023-11-07T19:17:53.008Z,100549.69
2023-11-07T19:20:22.262Z,100549.69
2023-11-07T19:22:51.976Z,100556.16
2023-11-07T19:25:22.223Z,100554.47
2023-11-07T19:27:54.522Z,100552.56
2023-11-07T19:30:24.171Z,100549.13
2023-11-07T19:32:54.033Z,100549.13
2023-11-07T19:35:23.595Z,100549.13
2023-11-07T19:37:55.394Z,100558.38
2023-11-07T19:40:25.297Z,100550.72
2023-11-07T19:42:57.421Z,100560.66
2023-11-07T19:45:27.488Z,100556.16
2023-11-07T19:47:58.214Z,100562.44
2023-11-07T19:50:28.212Z,100558.88
2023-11-07T19:53:06.127Z,100569.03
2023-11-07T19:55:42.426Z,100570.94
2023-11-07T19:58:13.714Z,100560.47
2023-11-07T20:00:43.793Z,100562.81
2023-11-07T20:03:13.470Z,100565.53
2023-11-07T20:05:45.909Z,100557.94
2023-11-07T20:08:15.078Z,100557.94
2023-11-07T20:10:44.245Z,100551.47
2023-11-07T20:13:14.834Z,100551.47
2023-11-07T20:15:44.110Z,100549.44
2023-11-07T20:18:13.972Z,100548.72
2023-11-07T20:20:43.412Z,100551.34
2023-11-07T20:23:13.656Z,100551.34
2023-11-07T20:25:42.898Z,100544.00
2023-11-07T20:28:13.660Z,100545.97
2023-11-07T20:30:42.890Z,100541.97
2023-11-07T20:33:14.004Z,100541.97
2023-11-07T20:35:43.261Z,100541.97
2023-11-07T20:38:13.857Z,100541.97
2023-11-07T20:40:43.496Z,100541.97
2023-11-07T20:43:13.979Z,100541.97
2023-11-07T20:45:43.086Z,100544.34
2023-11-07T20:48:12.453Z,100544.34
2023-11-07T20:50:42.778Z,100537.25
2023-11-07T20:53:12.039Z,100542.59
2023-11-07T20:55:41.404Z,100542.59
2023-11-07T20:58:10.619Z,100549.03
2023-11-07T21:00:41.370Z,100537.34
2023-11-07T21:03:10.639Z,100537.34
2023-11-07T21:05:40.082Z,100541.56
2023-11-07T21:08:09.279Z,100544.00
2023-11-07T21:10:39.818Z,100542.56
2023-11-07T21:13:10.147Z,100542.56
2023-11-07T21:15:40.645Z,100537.00
2023-11-07T21:18:12.256Z,100537.00
2023-11-07T21:20:41.683Z,100536.06
2023-11-07T21:23:10.905Z,100536.56
2023-11-07T21:25:40.152Z,100526.78
2023-11-07T21:28:10.109Z,100540.84
2023-11-07T21:30:41.045Z,100532.38
2023-11-07T21:33:11.746Z,62107.28
2023-11-07T21:35:41.442Z,100528.41
2023-11-07T21:38:11.611Z,100525.91
2023-11-07T21:40:43.120Z,100532.19
2023-11-07T21:43:12.751Z,100532.19
2023-11-07T21:45:43.732Z,100530.66
2023-11-07T21:48:13.010Z,100527.78
2023-11-07T21:50:42.388Z,100527.78
2023-11-07T21:53:11.495Z,100535.88
2023-11-07T21:55:41.710Z,100542.19
2023-11-07T21:58:11.068Z,100542.19
2023-11-07T22:00:40.251Z,100535.75
2023-11-07T22:03:12.783Z,100535.75
2023-11-07T22:05:42.067Z,100532.69
2023-11-07T22:08:11.798Z,100529.94
2023-11-07T22:10:40.832Z,100542.41
2023-11-07T22:13:10.103Z,100525.28
2023-11-07T22:15:41.027Z,100526.72
2023-11-07T22:18:12.999Z,100521.66
2023-11-07T22:20:42.863Z,100527.41
2023-11-07T22:23:12.462Z,100527.41
2023-11-07T22:25:41.540Z,100526.31
2023-11-07T22:28:10.659Z,100532.53
2023-11-07T22:30:39.715Z,100532.03
2023-11-07T22:33:10.429Z,100532.84
2023-11-07T22:35:39.595Z,100533.31
2023-11-07T22:38:08.847Z,100533.31
2023-11-07T22:40:37.999Z,100521.88
2023-11-07T22:43:07.124Z,100525.59
2023-11-07T22:45:36.897Z,100524.13
2023-11-07T22:48:06.848Z,100533.31
2023-11-07T22:50:37.769Z,100525.09
2023-11-07T22:53:07.425Z,100531.03
2023-11-07T22:55:36.483Z,100512.84
2023-11-07T22:58:05.986Z,100521.88
2023-11-07T23:00:40.736Z,100523.19
2023-11-07T23:03:14.696Z,100523.19
2023-11-07T23:05:45.827Z,100500.28
2023-11-07T23:08:15.033Z,100500.28
2023-11-07T23:10:45.597Z,100522.16
2023-11-07T23:13:15.308Z,100525.47
2023-11-07T23:15:48.393Z,100531.84
2023-11-07T23:18:17.810Z,100526.31
2023-11-07T23:20:48.675Z,100526.31
2023-11-07T23:23:18.039Z,100522.03
2023-11-07T23:25:47.982Z,100520.00
2023-11-07T23:28:17.893Z,100528.53
2023-11-07T23:30:47.091Z,100515.34
2023-11-07T23:33:16.343Z,100517.75
2023-11-07T23:35:47.035Z,100514.75
2023-11-07T23:38:16.167Z,100514.75
2023-11-07T23:40:45.217Z,100514.75
2023-11-07T23:43:14.462Z,100514.75
2023-11-07T23:45:43.610Z,100513.25
2023-11-07T23:48:12.948Z,100516.44
2023-11-07T23:50:42.377Z,100511.94
2023-11-07T23:53:12.878Z,100505.41
2023-11-07T23:55:41.979Z,100506.88
2023-11-07T23:58:11.099Z,100504.19
